createdAt,value
2023-05-04T00:00:06.535Z,3.37
2023-05-04T00:03:08.924Z,4.53
2023-05-04T00:06:10.799Z,4.60
2023-05-04T00:09:15.296Z,4.20
2023-05-04T00:12:17.900Z,4.50
2023-05-04T00:15:20.357Z,4.37
2023-05-04T00:18:22.191Z,3.50
2023-05-04T00:21:24.136Z,3.93
2023-05-04T00:24:26.240Z,4.17
2023-05-04T00:27:28.134Z,4.20
2023-05-04T00:30:30.044Z,4.47
2023-05-04T00:33:32.481Z,4.07
2023-05-04T00:36:34.586Z,4.20
2023-05-04T00:39:37.126Z,4.73
2023-05-04T00:42:39.041Z,5.63
2023-05-04T00:45:41.448Z,4.47
2023-05-04T00:48:43.723Z,4.80
2023-05-04T00:51:45.764Z,4.57
2023-05-04T00:54:47.998Z,4.37
2023-05-04T00:57:50.970Z,4.03
2023-05-04T01:00:53.728Z,4.53
2023-05-04T01:03:56.991Z,4.50
2023-05-04T01:07:06.959Z,4.70
2023-05-04T01:10:28.463Z,4.63
2023-05-04T01:13:30.917Z,4.27
2023-05-04T01:16:33.372Z,4.03
2023-05-04T01:19:35.750Z,4.63
2023-05-04T01:22:39.313Z,4.30
2023-05-04T01:26:05.277Z,4.33
2023-05-04T01:29:36.549Z,4.20
2023-05-04T01:32:39.778Z,4.03
2023-05-04T01:35:41.683Z,4.13
2023-05-04T01:38:43.544Z,3.87
2023-05-04T01:41:45.604Z,4.10
2023-05-04T01:44:47.489Z,4.40
2023-05-04T01:47:50.269Z,4.10
2023-05-04T01:50:52.162Z,6.00
2023-05-04T01:53:54.098Z,5.30
2023-05-04T01:56:56.172Z,5.03
2023-05-04T01:59:58.027Z,4.60
2023-05-04T02:03:00.037Z,4.10
2023-05-04T02:06:02.312Z,4.03
2023-05-04T02:09:04.298Z,4.20
2023-05-04T02:12:06.238Z,4.50
2023-05-04T02:15:08.891Z,4.07
2023-05-04T02:18:11.102Z,4.00
2023-05-04T02:21:13.734Z,4.13
2023-05-04T02:24:15.602Z,4.40
2023-05-04T02:27:17.774Z,4.60
2023-05-04T02:30:19.893Z,4.37
2023-05-04T02:33:21.718Z,3.83
2023-05-04T02:36:23.689Z,4.13
2023-05-04T02:39:25.578Z,4.07
2023-05-04T02:42:27.574Z,4.57
2023-05-04T02:45:29.498Z,5.00
2023-05-04T02:48:31.577Z,4.43
2023-05-04T02:51:33.484Z,3.93
2023-05-04T02:54:36.468Z,4.63
2023-05-04T02:57:38.408Z,4.40
2023-05-04T03:00:40.395Z,4.73
2023-05-04T03:03:42.263Z,4.00
2023-05-04T03:06:44.175Z,4.23
2023-05-04T03:09:47.730Z,4.87
2023-05-04T03:12:50.131Z,4.30
2023-05-04T03:15:52.663Z,4.67
2023-05-04T03:18:55.397Z,4.30
2023-05-04T03:21:57.251Z,3.67
2023-05-04T03:24:59.165Z,4.13
2023-05-04T03:28:01.288Z,4.40
2023-05-04T03:31:03.357Z,4.43
2023-05-04T03:34:05.294Z,4.80
2023-05-04T03:37:08.234Z,4.57
2023-05-04T03:40:11.008Z,4.43
2023-05-04T03:43:13.010Z,4.20
2023-05-04T03:46:15.541Z,4.40
2023-05-04T03:49:17.454Z,4.13
2023-05-04T03:52:19.554Z,4.07
2023-05-04T03:55:21.619Z,4.33
2023-05-04T03:58:23.522Z,4.20
2023-05-04T04:01:25.546Z,4.30
2023-05-04T04:04:27.720Z,3.77
2023-05-04T04:07:29.719Z,4.40
2023-05-04T04:10:31.982Z,3.83
2023-05-04T04:13:33.797Z,3.63
2023-05-04T04:16:36.474Z,3.67
2023-05-04T04:19:38.385Z,4.30
2023-05-04T04:22:40.418Z,4.30
2023-05-04T04:25:44.503Z,4.13
2023-05-04T04:28:51.253Z,4.43
2023-05-04T04:31:53.414Z,4.23
2023-05-04T04:34:55.623Z,4.87
2023-05-04T04:37:57.537Z,5.40
2023-05-04T04:40:59.357Z,4.57
2023-05-04T04:44:02.566Z,4.00
2023-05-04T04:47:04.491Z,3.87
2023-05-04T04:50:07.242Z,4.47
2023-05-04T04:53:10.059Z,3.80
2023-05-04T04:56:11.942Z,3.40
2023-05-04T04:59:14.484Z,3.73
2023-05-04T05:02:16.339Z,3.13
2023-05-04T05:05:18.516Z,3.60
2023-05-04T05:08:20.628Z,3.10
2023-05-04T05:11:22.617Z,3.10
2023-05-04T05:14:24.955Z,3.20
2023-05-04T05:17:27.002Z,3.33
2023-05-04T05:20:28.948Z,3.50
2023-05-04T05:23:31.099Z,3.40
2023-05-04T05:26:34.286Z,3.27
2023-05-04T05:29:37.425Z,3.37
2023-05-04T05:32:39.431Z,3.57
2023-05-04T05:35:41.861Z,3.17
2023-05-04T05:38:43.705Z,3.23
2023-05-04T05:41:45.958Z,3.17
2023-05-04T05:44:47.836Z,3.10
2023-05-04T05:47:50.323Z,3.00
2023-05-04T05:50:52.241Z,2.87
2023-05-04T05:53:54.172Z,3.10
2023-05-04T05:56:56.144Z,3.20
2023-05-04T05:59:58.542Z,3.40
2023-05-04T06:03:00.582Z,3.40
2023-05-04T06:06:04.495Z,3.27
2023-05-04T06:09:06.373Z,3.47
2023-05-04T06:12:13.880Z,3.30
2023-05-04T06:15:15.780Z,3.40
2023-05-04T06:18:17.751Z,3.10
2023-05-04T06:21:19.548Z,3.30
2023-05-04T06:24:23.473Z,3.00
2023-05-04T06:27:26.002Z,3.00
2023-05-04T06:30:28.108Z,3.90
2023-05-04T06:33:29.949Z,3.30
2023-05-04T06:36:32.310Z,3.23
2023-05-04T06:39:34.166Z,3.10
2023-05-04T06:42:36.504Z,3.13
2023-05-04T06:45:39.794Z,2.93
2023-05-04T06:48:41.755Z,2.97
2023-05-04T06:51:43.728Z,2.97
2023-05-04T06:54:46.503Z,2.47
2023-05-04T06:57:48.912Z,2.70
2023-05-04T07:00:52.122Z,2.50
2023-05-04T07:03:54.096Z,2.40
2023-05-04T07:06:56.091Z,2.57
2023-05-04T07:09:57.925Z,2.63
2023-05-04T07:12:59.980Z,2.77
2023-05-04T07:16:01.915Z,2.50
2023-05-04T07:19:04.831Z,2.20
2023-05-04T07:22:07.195Z,2.33
2023-05-04T07:25:09.428Z,2.43
2023-05-04T07:28:11.392Z,2.40
2023-05-04T07:31:14.924Z,2.50
2023-05-04T07:34:16.848Z,2.47
2023-05-04T07:37:19.309Z,2.10
2023-05-04T07:40:21.812Z,2.70
2023-05-04T07:43:23.822Z,2.10
2023-05-04T07:46:26.300Z,2.60
2023-05-04T07:49:28.137Z,2.10
2023-05-04T07:52:30.671Z,2.00
2023-05-04T07:55:32.536Z,1.93
2023-05-04T07:58:34.459Z,2.20
2023-05-04T08:01:36.868Z,2.40
2023-05-04T08:04:38.871Z,1.93
2023-05-04T08:07:40.792Z,2.57
2023-05-04T08:10:42.778Z,2.50
2023-05-04T08:13:49.763Z,2.50
2023-05-04T08:16:52.023Z,2.47
2023-05-04T08:19:54.317Z,2.70
2023-05-04T08:22:56.476Z,2.30
2023-05-04T08:26:02.630Z,2.47
2023-05-04T08:29:07.622Z,2.10
2023-05-04T08:32:09.584Z,2.00
2023-05-04T08:35:11.560Z,2.40
2023-05-04T08:38:13.400Z,2.43
2023-05-04T08:41:15.360Z,2.80
2023-05-04T08:44:18.327Z,2.60
2023-05-04T08:47:20.194Z,2.70
2023-05-04T08:50:22.122Z,2.50
2023-05-04T08:53:24.553Z,2.50
2023-05-04T08:56:26.500Z,2.60
2023-05-04T08:59:29.330Z,2.60
2023-05-04T09:02:33.452Z,2.50
2023-05-04T09:05:38.557Z,2.80
2023-05-04T09:08:41.485Z,2.67
2023-05-04T09:11:43.865Z,2.43
2023-05-04T09:14:48.862Z,2.77
2023-05-04T09:18:04.203Z,2.57
2023-05-04T09:21:07.122Z,3.07
2023-05-04T09:24:09.184Z,2.90
2023-05-04T09:27:16.066Z,2.70
2023-05-04T09:30:21.366Z,2.90
2023-05-04T09:33:27.812Z,2.80
2023-05-04T09:36:29.670Z,2.90
2023-05-04T09:39:31.665Z,2.93
2023-05-04T09:42:33.891Z,3.00
2023-05-04T09:45:44.301Z,3.43
2023-05-04T09:48:53.816Z,2.93
2023-05-04T09:51:56.936Z,3.23
2023-05-04T09:55:00.155Z,2.23
2023-05-04T09:58:02.887Z,2.70
2023-05-04T10:01:05.353Z,2.90
2023-05-04T10:04:07.505Z,3.03
2023-05-04T10:07:09.564Z,3.45
2023-05-04T10:10:15.524Z,3.17
2023-05-04T10:13:17.477Z,3.30
2023-05-04T10:17:01.713Z,2.70
2023-05-04T10:20:11.052Z,3.85
2023-05-04T10:23:25.160Z,2.97
2023-05-04T10:26:27.049Z,2.90
2023-05-04T10:29:33.447Z,3.30
2023-05-04T10:32:40.045Z,2.70
2023-05-04T10:35:54.922Z,3.03
2023-05-04T10:38:56.777Z,3.25
2023-05-04T10:42:06.662Z,3.20
2023-05-04T10:45:09.571Z,3.28
2023-05-04T10:48:12.007Z,2.85
2023-05-04T10:51:32.639Z,3.38
2023-05-04T10:54:38.970Z,2.70
2023-05-04T10:57:57.192Z,2.60
2023-05-04T11:00:59.225Z,2.75
2023-05-04T11:04:02.055Z,3.10
2023-05-04T11:07:06.489Z,2.20
2023-05-04T11:10:20.668Z,2.67
2023-05-04T11:13:22.673Z,2.65
2023-05-04T11:16:26.106Z,2.67
2023-05-04T11:19:28.112Z,2.28
2023-05-04T11:22:32.114Z,2.30
2023-05-04T11:25:36.583Z,2.20
2023-05-04T11:28:38.718Z,1.95
2023-05-04T11:31:42.008Z,1.92
2023-05-04T11:34:46.860Z,2.20
2023-05-04T11:37:50.812Z,1.70
2023-05-04T11:40:52.772Z,2.10
2023-05-04T11:43:56.960Z,2.28
2023-05-04T11:46:58.928Z,2.50
2023-05-04T11:50:00.917Z,2.20
2023-05-04T11:53:12.382Z,2.40
2023-05-04T11:56:14.443Z,2.25
2023-05-04T11:59:16.333Z,3.10
2023-05-04T12:02:19.488Z,2.78
2023-05-04T12:05:22.052Z,2.83
2023-05-04T12:08:30.150Z,2.75
2023-05-04T12:11:32.281Z,2.72
2023-05-04T12:14:34.222Z,2.65
2023-05-04T12:17:42.934Z,3.03
2023-05-04T12:20:44.891Z,2.92
2023-05-04T12:23:47.632Z,2.72
2023-05-04T12:26:50.057Z,3.00
2023-05-04T12:29:52.078Z,3.33
2023-05-04T12:32:54.049Z,3.10
2023-05-04T12:35:55.976Z,3.40
2023-05-04T12:38:58.016Z,2.70
2023-05-04T12:42:00.805Z,3.10
2023-05-04T12:45:02.817Z,3.30
2023-05-04T12:48:04.882Z,3.30
2023-05-04T12:51:06.971Z,2.90
2023-05-04T12:54:09.001Z,3.15
2023-05-04T12:57:13.006Z,3.30
2023-05-04T13:00:15.945Z,3.15
2023-05-04T13:03:21.347Z,3.55
2023-05-04T13:06:23.277Z,3.15
2023-05-04T13:09:25.440Z,3.67
2023-05-04T13:12:27.383Z,3.05
2023-05-04T13:15:29.369Z,3.33
2023-05-04T13:18:31.290Z,2.78
2023-05-04T13:21:33.251Z,3.35
2023-05-04T13:24:35.054Z,3.10
2023-05-04T13:27:37.710Z,3.72
2023-05-04T13:30:40.100Z,3.53
2023-05-04T13:33:42.428Z,3.53
2023-05-04T13:36:44.356Z,3.25
2023-05-04T13:39:46.200Z,3.53
2023-05-04T13:42:48.469Z,3.33
2023-05-04T13:45:50.569Z,3.28
2023-05-04T13:48:52.511Z,3.70
2023-05-04T13:51:56.796Z,3.80
2023-05-04T13:54:59.326Z,3.50
2023-05-04T13:58:01.158Z,3.40
2023-05-04T14:01:03.830Z,2.63
2023-05-04T14:04:05.735Z,3.42
2023-05-04T14:07:08.694Z,3.30
2023-05-04T14:10:10.954Z,3.22
2023-05-04T14:13:13.109Z,3.15
2023-05-04T14:16:15.029Z,3.45
2023-05-04T14:19:17.450Z,2.85
2023-05-04T14:22:19.215Z,3.35
2023-05-04T14:25:22.929Z,3.20
2023-05-04T14:28:24.820Z,3.50
2023-05-04T14:31:26.995Z,2.80
2023-05-04T14:34:29.002Z,3.35
2023-05-04T14:37:30.948Z,3.58
2023-05-04T14:40:32.909Z,3.28
2023-05-04T14:43:35.350Z,3.17
2023-05-04T14:46:37.166Z,3.25
2023-05-04T14:49:43.000Z,3.40
2023-05-04T14:52:45.112Z,2.80
2023-05-04T14:55:47.076Z,3.42
2023-05-04T14:58:48.993Z,2.90
2023-05-04T15:01:51.582Z,2.80
2023-05-04T15:04:53.515Z,3.00
2023-05-04T15:07:55.589Z,2.72
2023-05-04T15:10:59.347Z,2.70
2023-05-04T15:14:01.839Z,2.92
2023-05-04T15:17:04.411Z,2.85
2023-05-04T15:20:07.898Z,2.83
2023-05-04T15:23:12.871Z,2.60
2023-05-04T15:26:14.802Z,3.03
2023-05-04T15:29:16.634Z,2.85
2023-05-04T15:32:18.553Z,3.17
2023-05-04T15:35:20.729Z,3.10
2023-05-04T15:38:22.630Z,3.03
2023-05-04T15:41:24.511Z,2.83
2023-05-04T15:44:27.912Z,3.08
2023-05-04T15:47:30.633Z,2.75
2023-05-04T15:50:33.916Z,3.00
2023-05-04T15:53:35.816Z,3.22
2023-05-04T15:56:38.475Z,2.75
2023-05-04T15:59:40.984Z,3.17
2023-05-04T16:02:43.045Z,3.08
2023-05-04T16:05:44.950Z,2.97
2023-05-04T16:08:47.490Z,2.80
2023-05-04T16:11:49.337Z,2.70
2023-05-04T16:14:51.217Z,2.90
2023-05-04T16:17:53.177Z,2.85
2023-05-04T16:20:55.617Z,2.63
2023-05-04T16:23:57.502Z,2.50
2023-05-04T16:27:00.476Z,3.30
2023-05-04T16:30:02.316Z,3.20
2023-05-04T16:33:04.548Z,2.85
2023-05-04T16:36:07.154Z,3.13
2023-05-04T16:39:10.151Z,3.15
2023-05-04T16:42:12.124Z,2.83
2023-05-04T16:45:14.666Z,3.00
2023-05-04T16:48:16.773Z,3.30
2023-05-04T16:51:19.170Z,3.15
2023-05-04T16:54:22.160Z,3.72
2023-05-04T16:57:24.118Z,3.67
2023-05-04T17:00:26.244Z,3.38
2023-05-04T17:03:29.039Z,3.40
2023-05-04T17:06:31.407Z,3.28
2023-05-04T17:09:33.367Z,3.25
2023-05-04T17:12:36.086Z,3.33
2023-05-04T17:15:38.064Z,3.42
2023-05-04T17:18:40.024Z,3.17
2023-05-04T17:21:42.554Z,3.53
2023-05-04T17:24:45.736Z,2.63
2023-05-04T17:27:47.930Z,3.20
2023-05-04T17:30:49.918Z,3.00
2023-05-04T17:33:52.362Z,3.60
2023-05-04T17:36:54.327Z,3.15
2023-05-04T17:39:56.340Z,3.85
2023-05-04T17:42:58.308Z,3.42
2023-05-04T17:46:00.753Z,3.33
2023-05-04T17:49:02.702Z,2.78
2023-05-04T17:52:05.033Z,2.85
2023-05-04T17:55:07.224Z,2.67
2023-05-04T17:58:09.481Z,2.83
2023-05-04T18:01:11.683Z,2.60
2023-05-04T18:04:13.564Z,2.83
2023-05-04T18:07:15.403Z,3.23
2023-05-04T18:10:17.462Z,3.20
2023-05-04T18:13:19.363Z,3.10
2023-05-04T18:16:21.559Z,2.90
2023-05-04T18:19:28.087Z,3.10
2023-05-04T18:22:30.038Z,2.90
2023-05-04T18:25:33.080Z,2.77
2023-05-04T18:28:35.153Z,3.67
2023-05-04T18:31:37.094Z,3.30
2023-05-04T18:34:38.977Z,3.00
2023-05-04T18:37:40.938Z,2.83
2023-05-04T18:40:42.824Z,3.13
2023-05-04T18:43:45.448Z,2.60
2023-05-04T18:46:47.456Z,2.20
2023-05-04T18:49:54.662Z,2.87
2023-05-04T18:52:56.640Z,2.97
2023-05-04T18:56:06.378Z,3.13
2023-05-04T18:59:08.307Z,2.97
2023-05-04T19:02:10.533Z,3.20
2023-05-04T19:05:14.583Z,2.63
2023-05-04T19:08:17.031Z,3.00
2023-05-04T19:11:18.848Z,3.40
2023-05-04T19:14:21.844Z,2.80
2023-05-04T19:17:24.629Z,3.47
2023-05-04T19:20:28.536Z,2.97
2023-05-04T19:23:30.479Z,2.70
2023-05-04T19:26:32.386Z,3.17
2023-05-04T19:29:34.409Z,3.27
2023-05-04T19:32:39.509Z,3.27
2023-05-04T19:35:41.438Z,3.53
2023-05-04T19:38:43.527Z,3.27
2023-05-04T19:41:45.485Z,3.33
2023-05-04T19:44:47.447Z,3.20
2023-05-04T19:47:50.758Z,2.80
2023-05-04T19:50:52.672Z,3.23
2023-05-04T19:53:54.526Z,3.07
2023-05-04T19:56:56.702Z,3.53
2023-05-04T19:59:58.881Z,3.47
2023-05-04T20:03:01.122Z,3.63
2023-05-04T20:06:03.786Z,2.90
2023-05-04T20:09:05.762Z,3.93
2023-05-04T20:12:07.554Z,3.37
2023-05-04T20:15:10.057Z,4.10
2023-05-04T20:18:12.618Z,3.67
2023-05-04T20:21:14.695Z,3.43
2023-05-04T20:24:17.116Z,3.50
2023-05-04T20:27:19.407Z,3.17
2023-05-04T20:30:21.467Z,3.33
2023-05-04T20:33:23.464Z,3.87
2023-05-04T20:36:25.354Z,3.47
2023-05-04T20:39:27.248Z,3.40
2023-05-04T20:42:29.335Z,3.60
2023-05-04T20:45:31.299Z,3.33
2023-05-04T20:48:35.231Z,3.50
2023-05-04T20:51:37.511Z,3.50
2023-05-04T20:54:39.454Z,3.37
2023-05-04T20:57:41.503Z,3.63
2023-05-04T21:00:44.269Z,3.73
2023-05-04T21:03:46.251Z,3.97
2023-05-04T21:06:48.547Z,3.57
2023-05-04T21:09:50.569Z,3.47
2023-05-04T21:12:52.579Z,3.80
2023-05-04T21:15:54.587Z,3.47
2023-05-04T21:18:56.544Z,3.50
2023-05-04T21:21:58.367Z,3.50
2023-05-04T21:25:00.453Z,3.30
2023-05-04T21:28:02.305Z,3.80
2023-05-04T21:31:08.462Z,3.67
2023-05-04T21:34:10.588Z,2.87
2023-05-04T21:37:12.473Z,3.90
2023-05-04T21:40:14.410Z,3.33
2023-05-04T21:43:16.406Z,3.90
2023-05-04T21:46:19.080Z,4.03
2023-05-04T21:49:21.534Z,2.97
2023-05-04T21:52:23.594Z,3.33
2023-05-04T21:55:25.472Z,3.33
2023-05-04T21:58:27.829Z,3.20
2023-05-04T22:01:29.720Z,3.03
2023-05-04T22:04:34.965Z,3.30
2023-05-04T22:07:37.317Z,3.10
2023-05-04T22:10:39.521Z,3.30
2023-05-04T22:13:41.447Z,3.33
2023-05-04T22:16:43.401Z,3.13
2023-05-04T22:19:45.452Z,3.83
2023-05-04T22:22:47.384Z,4.10
2023-05-04T22:25:49.467Z,8.30
2023-05-04T22:28:51.329Z,3.87
2023-05-04T22:31:53.252Z,3.57
2023-05-04T22:34:55.516Z,3.20
2023-05-04T22:37:58.444Z,3.00
2023-05-04T22:41:00.876Z,3.30
2023-05-04T22:44:02.815Z,3.50
2023-05-04T22:47:04.711Z,3.60
2023-05-04T22:50:08.306Z,3.17
2023-05-04T22:53:11.106Z,6.07
2023-05-04T22:56:13.406Z,3.50
2023-05-04T22:59:15.256Z,3.37
2023-05-04T23:02:17.232Z,3.70
2023-05-04T23:05:19.225Z,3.47
2023-05-04T23:08:21.511Z,3.20
2023-05-04T23:11:24.185Z,6.03
2023-05-04T23:14:26.100Z,3.50
2023-05-04T23:17:28.004Z,3.50
2023-05-04T23:20:30.491Z,3.50
2023-05-04T23:23:32.381Z,3.80
2023-05-04T23:26:34.242Z,3.50
2023-05-04T23:29:36.175Z,3.60
2023-05-04T23:32:38.271Z,3.40
2023-05-04T23:35:40.309Z,4.10
2023-05-04T23:38:42.147Z,3.60
2023-05-04T23:41:44.476Z,2.97
2023-05-04T23:44:46.329Z,3.47
2023-05-04T23:47:48.304Z,3.70
2023-05-04T23:50:53.873Z,3.67
2023-05-04T23:53:56.271Z,3.00
2023-05-04T23:56:59.356Z,3.30
